Time;durP1;ratioP1;P1;durP2;ratioP2;P2;SDS_P1;SDS_P2;PMS_P1;PMS_P2;Temp;Humidity;BMP_temperature;BMP_pressure;BME280_temperature;BME280_humidity;BME280_pressure;Samples;Min_cycle;Max_cycle;Signal;HPM_P1;HPM_P2
2022/02/07 00:00:17;;;;;;;3.70;0.80;;;3.00;99.90;;;;;;5053026;28;20506;-57
2022/02/07 00:03:07;;;;;;;1.80;0.50;;;2.80;99.90;;;;;;5052518;28;20480;-59
2022/02/07 00:05:36;;;;;;;0.70;0.47;;;2.80;99.90;;;;;;5053041;28;20448;-57
2022/02/07 00:08:04;;;;;;;4.97;1.00;;;2.70;99.90;;;;;;5052572;28;20859;-57
2022/02/07 00:10:31;;;;;;;3.43;0.80;;;2.70;99.90;;;;;;5052814;28;20479;-56
2022/02/07 00:12:59;;;;;;;2.87;0.80;;;2.50;99.90;;;;;;5052462;28;20483;-55
2022/02/07 00:15:26;;;;;;;3.30;0.97;;;2.40;99.90;;;;;;5052390;28;20961;-55
2022/02/07 00:17:53;;;;;;;2.87;0.93;;;2.40;99.90;;;;;;5052384;28;20454;-55
2022/02/07 00:20:21;;;;;;;3.83;0.90;;;2.40;99.90;;;;;;5052717;28;20440;-54
2022/02/07 00:22:50;;;;;;;5.40;0.87;;;2.40;99.90;;;;;;5052708;28;20510;-60
2022/02/07 00:25:20;;;;;;;4.83;0.77;;;2.40;99.90;;;;;;5052746;28;20881;-55
2022/02/07 00:27:48;;;;;;;3.83;1.00;;;2.30;99.90;;;;;;5052334;28;20513;-57
2022/02/07 00:30:18;;;;;;;2.87;0.90;;;2.40;99.90;;;;;;5051611;28;20484;-54
2022/02/07 00:32:45;;;;;;;3.80;0.80;;;2.40;99.90;;;;;;5052404;28;20471;-53
2022/02/07 00:35:15;;;;;;;2.33;0.80;;;2.40;99.90;;;;;;5052329;28;20514;-55
2022/02/07 00:37:45;;;;;;;1.90;0.93;;;2.40;99.90;;;;;;5052385;28;20546;-57
2022/02/07 00:40:32;;;;;;;3.97;0.87;;;2.40;99.90;;;;;;5051841;28;20448;-57
2022/02/07 00:43:02;;;;;;;3.23;0.77;;;2.40;99.90;;;;;;5052280;28;20472;-58
2022/02/07 00:45:41;;;;;;;3.80;0.83;;;2.50;99.90;;;;;;5051999;28;20456;-59
2022/02/07 00:48:10;;;;;;;0.63;0.50;;;2.50;99.90;;;;;;5051975;28;20455;-53
2022/02/07 00:50:40;;;;;;;1.47;0.63;;;2.40;99.90;;;;;;5051507;28;20847;-56
2022/02/07 00:53:09;;;;;;;5.97;1.20;;;2.40;99.90;;;;;;5052052;28;20863;-55
2022/02/07 00:55:37;;;;;;;1.90;0.60;;;2.30;99.90;;;;;;5051850;28;20458;-58
2022/02/07 00:58:04;;;;;;;3.60;0.80;;;2.30;99.90;;;;;;5051774;28;20505;-57
2022/02/07 01:00:32;;;;;;;4.57;0.77;;;2.30;99.90;;;;;;5051681;28;20440;-56
2022/02/07 01:02:59;;;;;;;7.10;0.60;;;2.30;99.90;;;;;;5051676;28;20460;-56
2022/02/07 01:05:26;;;;;;;3.80;0.83;;;2.30;99.90;;;;;;5051904;28;20460;-57
2022/02/07 01:07:53;;;;;;;4.77;0.90;;;2.30;99.90;;;;;;5051472;28;20887;-56
2022/02/07 01:10:26;;;;;;;5.10;0.77;;;2.30;99.90;;;;;;5051922;28;20484;-53
2022/02/07 01:13:07;;;;;;;3.23;0.67;;;2.30;99.90;;;;;;5051604;28;20472;-57
2022/02/07 01:15:43;;;;;;;3.67;1.20;;;2.40;99.90;;;;;;5051742;28;20830;-59
2022/02/07 01:21:19;;;;;;;3.07;1.03;;;2.40;99.90;;;;;;5051648;28;20988;-53
2022/02/07 01:45:58;;;;;;;5.37;0.90;;;2.40;99.90;;;;;;5051426;28;20978;-59
2022/02/07 01:46:21;;;;;;;6.37;1.00;;;2.60;99.90;;;;;;5055510;28;20481;-53
2022/02/07 01:49:03;;;;;;;6.77;1.30;;;2.70;99.90;;;;;;5055715;28;20496;-54
2022/02/07 01:51:53;;;;;;;8.13;1.70;;;2.70;99.60;;;;;;5055485;28;20574;-58
2022/02/07 01:54:30;;;;;;;7.07;1.00;;;2.70;99.90;;;;;;5055240;28;20452;-53
2022/02/07 01:56:57;;;;;;;6.73;1.13;;;2.80;98.50;;;;;;5055120;28;20451;-54
2022/02/07 01:59:24;;;;;;;6.33;1.20;;;2.80;98.00;;;;;;5055042;28;20444;-55
2022/02/07 02:01:53;;;;;;;4.43;1.30;;;2.90;87.30;;;;;;5055213;28;20448;-56
2022/02/07 02:04:19;;;;;;;4.07;1.20;;;2.90;87.60;;;;;;5055278;28;20444;-55
2022/02/07 02:06:46;;;;;;;6.80;0.97;;;2.90;90.60;;;;;;5054876;28;20448;-55
2022/02/07 02:09:13;;;;;;;5.80;1.17;;;2.90;77.60;;;;;;5055163;28;20452;-56
2022/02/07 02:11:42;;;;;;;4.73;1.40;;;2.90;65.20;;;;;;5054797;28;20475;-55
2022/02/07 02:14:21;;;;;;;10.57;2.13;;;2.90;70.50;;;;;;5054689;28;20550;-57
2022/02/07 02:17:04;;;;;;;7.80;1.80;;;3.00;78.90;;;;;;5054659;28;20448;-57
2022/02/07 02:20:01;;;;;;;6.53;1.50;;;3.00;83.90;;;;;;5054835;28;20487;-54
2022/02/07 02:36:27;;;;;;;5.43;1.40;;;3.20;52.60;;;;;;5050924;28;20979;-54
2022/02/07 02:45:24;;;;;;;3.87;1.03;;;3.20;36.30;;;;;;5054523;28;20558;-54
2022/02/07 02:47:19;;;;;;;7.50;1.13;;;3.10;47.90;;;;;;5054093;28;20497;-54
2022/02/07 02:49:49;;;;;;;6.43;1.23;;;3.20;45.50;;;;;;5054285;28;20443;-55
2022/02/07 02:52:16;;;;;;;4.13;1.20;;;3.20;41.70;;;;;;5053910;28;20487;-57
2022/02/07 02:54:44;;;;;;;9.17;1.50;;;3.20;54.70;;;;;;5053768;28;20456;-54
2022/02/07 02:57:10;;;;;;;8.83;2.10;;;3.20;41.20;;;;;;5054190;28;20454;-59
2022/02/07 02:59:37;;;;;;;10.67;2.10;;;3.30;35.00;;;;;;5054148;28;20251;-57
2022/02/07 03:02:04;;;;;;;7.90;1.57;;;3.20;50.80;;;;;;5054391;28;20252;-56
2022/02/07 03:04:31;;;;;;;8.53;1.70;;;3.30;57.90;;;;;;5054240;28;20210;-57
2022/02/07 03:06:57;;;;;;;7.53;1.70;;;3.30;58.90;;;;;;5053978;28;20448;-54
2022/02/07 03:09:24;;;;;;;5.43;1.43;;;3.20;80.90;;;;;;5054077;28;21019;-56
2022/02/07 03:11:52;;;;;;;7.60;1.63;;;3.30;84.80;;;;;;5053647;28;20628;-54
2022/02/07 03:14:23;;;;;;;6.80;1.43;;;3.20;88.60;;;;;;5053760;28;20939;-57
2022/02/07 03:16:50;;;;;;;7.73;1.30;;;3.20;80.60;;;;;;5053432;28;20785;-55
2022/02/07 03:19:18;;;;;;;7.20;1.40;;;3.20;76.60;;;;;;5053956;28;20458;-56
2022/02/07 03:21:46;;;;;;;5.43;1.20;;;3.20;66.80;;;;;;5053912;28;20527;-56
2022/02/07 03:24:12;;;;;;;6.33;1.23;;;3.20;74.50;;;;;;5053609;28;20466;-58
2022/02/07 03:26:42;;;;;;;8.60;1.43;;;3.20;83.60;;;;;;5053327;28;20448;-54
2022/02/07 03:29:11;;;;;;;7.77;1.70;;;3.20;92.90;;;;;;5053346;28;20456;-55
2022/02/07 03:31:38;;;;;;;9.90;1.23;;;3.20;84.30;;;;;;5053694;28;20537;-55
2022/02/07 03:34:06;;;;;;;13.70;1.40;;;3.20;79.90;;;;;;5053779;28;20606;-57
2022/02/07 03:36:34;;;;;;;7.87;1.30;;;3.20;83.80;;;;;;5053698;28;20460;-53
2022/02/07 03:39:01;;;;;;;4.70;1.10;;;3.30;76.70;;;;;;5053745;28;21013;-58
2022/02/07 03:41:28;;;;;;;9.17;2.00;;;3.30;78.80;;;;;;5053853;28;20205;-56
2022/02/07 03:43:55;;;;;;;7.53;1.83;;;3.30;61.70;;;;;;5053275;28;20708;-56
2022/02/07 03:46:23;;;;;;;8.53;2.07;;;3.30;58.10;;;;;;5053143;28;20448;-53
2022/02/07 03:48:49;;;;;;;7.67;1.77;;;3.30;75.50;;;;;;5052884;28;20460;-54
2022/02/07 03:51:16;;;;;;;9.97;1.90;;;3.30;79.20;;;;;;5053145;28;20311;-58
2022/02/07 03:53:43;;;;;;;9.50;2.23;;;3.30;85.90;;;;;;5052799;28;20475;-56
2022/02/07 03:56:09;;;;;;;6.60;1.57;;;3.20;67.80;;;;;;5053140;28;20209;-56
2022/02/07 03:58:36;;;;;;;7.00;1.97;;;3.30;76.10;;;;;;5053850;28;20797;-55
2022/02/07 04:01:03;;;;;;;9.33;1.70;;;3.30;81.70;;;;;;5053182;28;20206;-56
2022/02/07 04:03:32;;;;;;;16.60;1.87;;;3.20;78.10;;;;;;5053508;28;20471;-56
2022/02/07 04:06:01;;;;;;;5.67;1.87;;;3.20;65.30;;;;;;5051640;28;20452;-52
2022/02/07 04:08:31;;;;;;;7.23;1.57;;;3.20;81.90;;;;;;5052951;28;20214;-56
2022/02/07 04:11:03;;;;;;;8.63;1.13;;;3.10;86.00;;;;;;5052745;28;20324;-55
2022/02/07 04:13:32;;;;;;;13.50;2.60;;;3.20;90.60;;;;;;5052864;28;20471;-55
2022/02/07 04:16:01;;;;;;;11.37;1.77;;;3.20;84.90;;;;;;5052707;28;20498;-55
2022/02/07 04:18:32;;;;;;;9.93;2.13;;;3.20;73.60;;;;;;5052784;28;20559;-58
2022/02/07 04:21:01;;;;;;;4.83;1.30;;;3.10;82.30;;;;;;5052531;28;20809;-57
2022/02/07 04:23:28;;;;;;;7.73;1.80;;;3.20;71.00;;;;;;5052987;28;20598;-53
2022/02/07 04:25:55;;;;;;;6.73;1.33;;;3.20;75.70;;;;;;5052396;28;20218;-58
2022/02/07 04:28:22;;;;;;;9.50;1.47;;;3.20;72.10;;;;;;5052759;28;20213;-55
2022/02/07 04:30:49;;;;;;;9.70;1.90;;;3.10;92.30;;;;;;5052558;28;20220;-53
2022/02/07 04:33:15;;;;;;;11.70;1.77;;;3.10;93.40;;;;;;5052080;28;20480;-55
2022/02/07 04:35:42;;;;;;;8.87;1.67;;;3.20;87.60;;;;;;5052122;28;20502;-58
2022/02/07 04:38:10;;;;;;;4.87;1.37;;;3.20;87.80;;;;;;5052267;28;20228;-55
2022/02/07 04:40:38;;;;;;;6.27;1.73;;;3.20;95.50;;;;;;5052345;28;20452;-58
2022/02/07 04:43:06;;;;;;;8.20;1.70;;;3.20;82.90;;;;;;5051963;28;20471;-53
2022/02/07 04:45:44;;;;;;;9.93;2.20;;;3.20;96.10;;;;;;5051981;28;20448;-56
2022/02/07 04:48:39;;;;;;;7.97;1.33;;;3.20;86.00;;;;;;5051513;28;20318;-53
2022/02/07 04:51:39;;;;;;;6.53;1.30;;;3.20;88.20;;;;;;5051953;28;20492;-59
2022/02/07 04:54:16;;;;;;;9.33;1.47;;;3.20;90.40;;;;;;5051776;28;20225;-57
2022/02/07 04:57:09;;;;;;;3.67;1.20;;;3.20;93.80;;;;;;5052394;28;20444;-59
2022/02/07 04:59:45;;;;;;;10.50;1.90;;;3.30;93.80;;;;;;5052452;28;20454;-58
2022/02/07 05:02:19;;;;;;;7.63;1.73;;;3.30;95.20;;;;;;5052221;28;20500;-57
2022/02/07 05:04:52;;;;;;;7.70;1.60;;;3.30;90.00;;;;;;5051981;28;20448;-52
2022/02/07 05:15:33;;;;;;;6.93;1.77;;;3.30;85.30;;;;;;5051056;28;20478;-51
2022/02/07 05:18:00;;;;;;;12.07;1.03;;;3.30;90.60;;;;;;5051557;28;20208;-54
2022/02/07 05:20:27;;;;;;;9.73;1.73;;;3.30;84.80;;;;;;5051472;28;20234;-56
2022/02/07 05:22:53;;;;;;;11.57;1.90;;;3.40;69.50;;;;;;5051418;28;20229;-57
2022/02/07 05:25:21;;;;;;;10.60;1.97;;;3.40;90.00;;;;;;5051429;28;20218;-54
2022/02/07 05:27:49;;;;;;;5.47;1.37;;;3.40;93.30;;;;;;5051417;28;20216;-60
2022/02/07 05:30:16;;;;;;;18.33;2.50;;;3.50;79.40;;;;;;5052191;28;20206;-56
2022/02/07 05:32:43;;;;;;;13.67;2.17;;;3.50;69.20;;;;;;5051749;28;20233;-59
2022/02/07 05:35:09;;;;;;;7.70;1.70;;;3.50;75.60;;;;;;5051431;28;20205;-58
2022/02/07 05:37:36;;;;;;;15.17;2.47;;;3.50;75.00;;;;;;5051204;28;20216;-53
2022/02/07 05:40:08;;;;;;;9.57;1.47;;;3.50;82.50;;;;;;5051540;28;20373;-56
2022/02/07 05:42:38;;;;;;;12.13;2.23;;;3.50;74.30;;;;;;5051365;28;20961;-55
2022/02/07 05:45:07;;;;;;;7.23;1.57;;;3.50;70.50;;;;;;5051634;28;20210;-56
2022/02/07 05:47:34;;;;;;;10.30;2.57;;;3.60;99.00;;;;;;5051330;28;20297;-58
2022/02/07 05:50:01;;;;;;;5.50;1.60;;;3.50;99.90;;;;;;5051273;28;20210;-58
2022/02/07 05:52:28;;;;;;;10.30;2.70;;;3.50;99.90;;;;;;5050897;28;20275;-52
2022/02/07 05:54:55;;;;;;;8.80;2.00;;;3.50;99.90;;;;;;5050904;28;20209;-53
2022/02/07 05:57:21;;;;;;;7.27;1.73;;;3.40;99.90;;;;;;5051191;28;20207;-55
2022/02/07 05:59:50;;;;;;;6.33;1.83;;;3.40;99.90;;;;;;5051019;28;20448;-58
2022/02/07 06:02:16;;;;;;;15.30;2.70;;;3.40;99.90;;;;;;5050856;28;20468;-55
2022/02/07 06:04:43;;;;;;;12.00;2.50;;;3.40;99.90;;;;;;5050834;28;20453;-55
2022/02/07 06:07:09;;;;;;;15.10;2.63;;;3.50;99.90;;;;;;5050853;28;20455;-51
2022/02/07 06:09:36;;;;;;;11.73;2.10;;;3.50;99.90;;;;;;5050843;28;20271;-57
2022/02/07 06:12:03;;;;;;;8.97;1.80;;;3.50;99.90;;;;;;5050841;28;20680;-58
2022/02/07 06:14:30;;;;;;;9.90;1.93;;;3.50;99.90;;;;;;5051495;28;20937;-58
2022/02/07 06:16:58;;;;;;;14.03;2.33;;;3.60;98.60;;;;;;5051234;28;20217;-58
2022/02/07 06:19:25;;;;;;;8.00;2.50;;;3.60;99.90;;;;;;5051005;28;20459;-56
2022/02/07 06:21:52;;;;;;;7.60;1.80;;;3.60;99.90;;;;;;5051089;28;20205;-56
2022/02/07 06:24:19;;;;;;;12.00;2.60;;;3.60;99.90;;;;;;5034666;28;20222;-63
2022/02/07 06:26:45;;;;;;;15.27;2.37;;;3.60;99.90;;;;;;5047017;28;20946;-59
2022/02/07 06:29:12;;;;;;;12.53;2.37;;;3.50;99.90;;;;;;5053751;28;20676;-61
2022/02/07 06:31:39;;;;;;;13.83;2.00;;;3.50;99.90;;;;;;5054152;28;20259;-58
2022/02/07 06:34:08;;;;;;;13.33;2.57;;;3.50;99.90;;;;;;5054192;28;20445;-59
2022/02/07 06:36:35;;;;;;;13.40;1.77;;;3.40;99.90;;;;;;5053716;28;20251;-59
2022/02/07 06:39:01;;;;;;;10.73;2.50;;;3.30;99.90;;;;;;5054699;28;20452;-63
2022/02/07 06:41:28;;;;;;;7.27;2.00;;;3.40;99.90;;;;;;5054279;28;20206;-60
2022/02/07 06:43:55;;;;;;;12.57;2.00;;;3.30;99.90;;;;;;5053936;28;20467;-57
2022/02/07 06:46:23;;;;;;;12.03;2.27;;;3.40;99.90;;;;;;5046379;28;20471;-63
2022/02/07 06:48:49;;;;;;;11.27;2.50;;;3.40;99.90;;;;;;5052887;28;20510;-62
2022/02/07 06:51:17;;;;;;;11.27;2.13;;;3.40;99.90;;;;;;5054132;28;20210;-62
2022/02/07 06:53:44;;;;;;;17.47;2.73;;;3.40;99.90;;;;;;5053708;28;20468;-60
2022/02/07 06:56:11;;;;;;;11.53;2.23;;;3.50;99.90;;;;;;5053616;28;20229;-61
2022/02/07 06:58:38;;;;;;;15.27;2.47;;;3.50;99.90;;;;;;5053878;28;20256;-61
2022/02/07 07:01:05;;;;;;;12.67;2.10;;;3.50;99.90;;;;;;5053822;28;20213;-60
2022/02/07 07:03:34;;;;;;;4.87;1.27;;;3.50;99.90;;;;;;5053264;28;20230;-61
2022/02/07 07:06:01;;;;;;;14.17;2.10;;;3.60;99.90;;;;;;5052725;28;20214;-61
2022/02/07 07:08:35;;;;;;;10.93;2.13;;;3.60;99.90;;;;;;5053361;28;20213;-61
2022/02/07 07:11:02;;;;;;;15.57;2.47;;;3.60;99.90;;;;;;5052619;28;20293;-61
2022/02/07 07:13:38;;;;;;;10.23;1.87;;;3.60;99.90;;;;;;5053001;28;20230;-61
2022/02/07 07:16:16;;;;;;;11.23;2.13;;;3.60;99.90;;;;;;5052597;28;20241;-62
2022/02/07 07:18:42;;;;;;;7.83;2.17;;;3.60;99.90;;;;;;5053177;28;20206;-61
2022/02/07 07:21:09;;;;;;;14.27;2.20;;;3.60;99.90;;;;;;5053443;28;20265;-60
2022/02/07 07:23:38;;;;;;;8.77;1.90;;;3.70;99.90;;;;;;5053311;28;20280;-60
2022/02/07 07:26:06;;;;;;;6.33;1.90;;;3.70;99.90;;;;;;5053278;28;20207;-58
2022/02/07 07:28:33;;;;;;;12.63;2.20;;;3.80;99.90;;;;;;5052622;28;20669;-60
2022/02/07 07:31:00;;;;;;;8.97;2.30;;;3.80;99.90;;;;;;5053109;28;21060;-59
2022/02/07 07:33:29;;;;;;;13.17;2.23;;;3.80;99.90;;;;;;5053163;28;20240;-58
2022/02/07 07:35:57;;;;;;;12.03;1.93;;;3.80;99.90;;;;;;5052470;28;20788;-57
2022/02/07 07:38:24;;;;;;;6.13;1.43;;;3.80;99.90;;;;;;5052105;28;20317;-59
2022/02/07 07:40:52;;;;;;;10.43;2.03;;;3.90;99.90;;;;;;5053096;28;20293;-59
2022/02/07 07:43:19;;;;;;;11.50;2.57;;;3.80;99.90;;;;;;5052580;28;20223;-59
2022/02/07 07:45:48;;;;;;;15.60;2.63;;;3.80;99.90;;;;;;5052688;28;20210;-58
2022/02/07 07:48:19;;;;;;;9.77;2.13;;;3.80;99.90;;;;;;5052088;28;20214;-60
2022/02/07 07:50:53;;;;;;;11.20;2.10;;;3.80;99.90;;;;;;5047828;28;20290;-60
2022/02/07 07:53:27;;;;;;;8.03;2.20;;;3.90;99.90;;;;;;5032758;28;20226;-61
2022/02/07 08:01:42;;;;;;;9.37;2.23;;;3.80;99.90;;;;;;5052602;28;20233;-62
2022/02/07 08:04:11;;;;;;;7.53;1.57;;;3.90;99.90;;;;;;5052629;28;20715;-63
2022/02/07 08:06:44;;;;;;;9.80;1.70;;;3.90;95.00;;;;;;5052196;28;20206;-62
2022/02/07 08:09:34;;;;;;;7.83;1.67;;;3.90;94.50;;;;;;5052587;28;20556;-63
2022/02/07 08:12:03;;;;;;;9.17;1.73;;;3.90;80.50;;;;;;5051871;28;20263;-64
2022/02/07 08:14:34;;;;;;;7.97;1.33;;;4.00;72.50;;;;;;5052393;28;20202;-64
2022/02/07 08:17:01;;;;;;;10.20;1.50;;;4.00;63.30;;;;;;5051648;28;20277;-65
2022/02/07 08:19:29;;;;;;;6.23;1.20;;;4.00;61.50;;;;;;5051711;28;20215;-65
2022/02/07 08:21:55;;;;;;;8.97;1.47;;;4.10;53.50;;;;;;5051945;28;20203;-65
2022/02/07 08:24:22;;;;;;;8.50;1.63;;;4.10;46.20;;;;;;5051844;28;20572;-63
2022/02/07 08:26:49;;;;;;;7.17;1.70;;;4.20;50.90;;;;;;5051430;28;20241;-63
2022/02/07 08:29:17;;;;;;;5.47;1.50;;;4.10;61.10;;;;;;5051957;28;20213;-60
2022/02/07 08:31:44;;;;;;;8.63;1.30;;;4.20;68.80;;;;;;5052318;28;20271;-61
2022/02/07 08:34:11;;;;;;;5.70;0.97;;;4.30;67.70;;;;;;5052417;28;20202;-62
2022/02/07 08:36:37;;;;;;;5.37;1.10;;;4.30;66.20;;;;;;5051674;28;20207;-62
2022/02/07 08:39:04;;;;;;;8.33;1.87;;;4.50;52.30;;;;;;5052106;28;20213;-62
2022/02/07 08:41:31;;;;;;;3.13;1.20;;;4.50;63.10;;;;;;5051873;28;20234;-60
2022/02/07 08:43:59;;;;;;;12.77;2.00;;;4.60;54.00;;;;;;5059892;28;20283;-60
2022/02/07 08:46:27;;;;;;;6.33;2.07;;;4.70;46.60;;;;;;5052182;28;20287;-62
2022/02/07 08:48:54;;;;;;;9.87;1.77;;;4.70;47.90;;;;;;5051588;28;20700;-64
2022/02/07 08:51:21;;;;;;;8.67;2.30;;;4.60;69.00;;;;;;5051029;28;20630;-60
2022/02/07 08:53:49;;;;;;;9.17;2.83;;;4.60;73.40;;;;;;5051226;28;20248;-60
2022/02/07 08:56:19;;;;;;;7.10;2.43;;;4.70;81.20;;;;;;5050634;28;20694;-60
2022/02/07 08:58:48;;;;;;;9.07;2.00;;;4.70;90.00;;;;;;5051483;28;20209;-62
2022/02/07 09:01:19;;;;;;;8.10;2.07;;;4.80;91.50;;;;;;5051232;28;20209;-61
2022/02/07 09:04:19;;;;;;;11.80;2.67;;;4.80;86.60;;;;;;5051232;28;20303;-62
2022/02/07 09:06:58;;;;;;;10.77;2.73;;;4.80;88.80;;;;;;5049983;28;20217;-62
2022/02/07 09:09:25;;;;;;;17.13;2.73;;;4.80;93.30;;;;;;5050927;28;20629;-63
2022/02/07 09:11:52;;;;;;;13.63;2.23;;;4.80;96.40;;;;;;5051041;28;20238;-63
2022/02/07 09:14:22;;;;;;;17.10;2.37;;;4.90;83.10;;;;;;5050727;28;20225;-63
2022/02/07 09:16:51;;;;;;;8.70;2.40;;;4.90;84.70;;;;;;5050356;28;20206;-64
2022/02/07 09:19:21;;;;;;;8.23;2.20;;;4.90;90.30;;;;;;5051156;28;20588;-65
2022/02/07 09:21:49;;;;;;;8.60;2.47;;;5.00;95.60;;;;;;5051417;28;20216;-63
2022/02/07 09:24:15;;;;;;;18.00;3.10;;;5.00;90.60;;;;;;5051452;28;20224;-64
2022/02/07 09:26:43;;;;;;;13.33;2.50;;;5.00;79.50;;;;;;5050820;28;20586;-61
2022/02/07 09:29:10;;;;;;;12.93;3.47;;;5.10;72.60;;;;;;5051393;28;20210;-65
2022/02/07 09:31:37;;;;;;;6.63;2.00;;;5.00;81.40;;;;;;5051355;28;20650;-63
2022/02/07 09:34:03;;;;;;;5.97;2.47;;;5.00;91.30;;;;;;5051601;28;20718;-64
2022/02/07 09:36:32;;;;;;;11.17;2.50;;;5.00;67.30;;;;;;5051342;28;20215;-63
2022/02/07 09:38:58;;;;;;;16.87;3.03;;;5.10;84.90;;;;;;5050529;28;20232;-61
2022/02/07 09:41:30;;;;;;;13.83;2.87;;;5.10;90.20;;;;;;5050948;28;20696;-62
2022/02/07 09:43:58;;;;;;;9.87;2.53;;;5.10;90.30;;;;;;5051040;28;20653;-62
2022/02/07 09:46:35;;;;;;;8.73;2.87;;;5.20;84.20;;;;;;5032143;28;20212;-61
2022/02/07 09:49:03;;;;;;;13.17;2.80;;;5.30;84.40;;;;;;5030793;28;20664;-60
2022/02/07 09:51:30;;;;;;;14.37;3.30;;;5.40;77.50;;;;;;5031290;28;20233;-61
2022/02/07 09:53:58;;;;;;;18.40;3.17;;;5.40;76.80;;;;;;5030846;28;20234;-60
2022/02/07 09:56:26;;;;;;;16.50;3.40;;;5.40;78.00;;;;;;5030177;28;20700;-61
2022/02/07 09:58:54;;;;;;;15.63;3.30;;;5.40;91.60;;;;;;5046304;28;20224;-61
2022/02/07 10:01:28;;;;;;;15.77;4.43;;;5.40;89.70;;;;;;5050543;28;20216;-62
2022/02/07 10:04:00;;;;;;;11.47;3.20;;;5.50;79.80;;;;;;5054867;28;20308;-62
2022/02/07 10:06:47;;;;;;;15.43;3.67;;;5.60;77.90;;;;;;5053934;28;20583;-63
2022/02/07 10:09:39;;;;;;;18.57;3.60;;;5.70;59.00;;;;;;5054782;28;20280;-61
2022/02/07 10:12:26;;;;;;;12.33;2.73;;;5.70;45.70;;;;;;5054294;28;20315;-62
2022/02/07 10:15:05;;;;;;;10.17;3.00;;;5.80;35.40;;;;;;5054548;28;20656;-63
2022/02/07 10:17:43;;;;;;;11.17;3.03;;;5.90;51.00;;;;;;5053569;28;20300;-65
2022/02/07 10:39:55;;;;;;;10.90;2.90;;;6.10;1.00;;;;;;5033749;28;20240;-61
2022/02/07 10:42:45;;;;;;;9.73;2.70;;;6.00;14.50;;;;;;5033838;28;20226;-62
2022/02/07 10:45:12;;;;;;;16.00;3.30;;;6.10;14.10;;;;;;5034159;28;20903;-61
2022/02/07 10:47:42;;;;;;;11.00;2.67;;;6.20;16.50;;;;;;5034073;28;20214;-63
2022/02/07 10:50:12;;;;;;;16.73;3.40;;;6.30;1.00;;;;;;5034221;28;20206;-63
2022/02/07 10:52:50;;;;;;;9.03;3.00;;;6.40;1.00;;;;;;5033872;28;20240;-62
2022/02/07 10:55:24;;;;;;;13.37;3.10;;;6.50;1.00;;;;;;5034073;28;20746;-63
2022/02/07 10:57:54;;;;;;;11.23;2.67;;;6.40;1.00;;;;;;5033694;28;20225;-62
2022/02/07 11:00:26;;;;;;;12.97;2.50;;;6.40;1.00;;;;;;5033987;28;20202;-65
2022/02/07 11:03:02;;;;;;;14.67;3.10;;;6.50;1.00;;;;;;5033586;28;20222;-64
2022/02/07 11:05:35;;;;;;;10.77;2.53;;;6.50;1.00;;;;;;5033937;28;20224;-65
2022/02/07 11:08:19;;;;;;;12.00;2.50;;;6.50;1.00;;;;;;5032941;28;20233;-62
2022/02/07 11:11:06;;;;;;;16.93;3.20;;;6.60;1.00;;;;;;5033480;28;20212;-63
2022/02/07 11:14:04;;;;;;;10.43;2.67;;;6.60;1.00;;;;;;5032531;28;20889;-61
2022/02/07 11:16:41;;;;;;;19.73;3.97;;;6.80;1.00;;;;;;5033032;28;20213;-61
2022/02/07 11:19:42;;;;;;;13.37;2.80;;;6.80;1.00;;;;;;5032873;28;20297;-62
2022/02/07 11:22:23;;;;;;;14.10;3.20;;;6.90;1.00;;;;;;5033181;28;20225;-61
2022/02/07 11:25:03;;;;;;;12.80;2.50;;;6.90;1.00;;;;;;5032976;28;20272;-61
2022/02/07 11:27:36;;;;;;;9.83;2.83;;;7.00;1.00;;;;;;5032434;28;20209;-62
2022/02/07 11:30:10;;;;;;;17.83;2.50;;;6.90;1.00;;;;;;5032802;28;20253;-59
2022/02/07 11:32:54;;;;;;;10.23;2.07;;;6.90;1.00;;;;;;5035304;28;20284;-63
2022/02/07 11:35:23;;;;;;;18.37;3.87;;;6.90;1.00;;;;;;5053287;28;20210;-62
2022/02/07 11:38:09;;;;;;;10.07;2.30;;;7.00;1.00;;;;;;5052023;28;20205;-62
2022/02/07 11:40:38;;;;;;;15.23;3.30;;;7.00;1.00;;;;;;5052536;28;20214;-63
2022/02/07 11:43:10;;;;;;;12.83;2.30;;;7.00;1.00;;;;;;5052697;28;20233;-64
2022/02/07 11:45:53;;;;;;;16.40;2.20;;;7.00;99.90;;;;;;5052795;28;20231;-64
2022/02/07 11:48:29;;;;;;;14.10;2.50;;;7.00;1.00;;;;;;5052354;28;20210;-63
2022/02/07 11:50:58;;;;;;;11.00;2.63;;;6.90;1.00;;;;;;5052595;28;20297;-63
2022/02/07 11:53:32;;;;;;;17.17;3.30;;;6.80;1.00;;;;;;5052257;28;20230;-62
2022/02/07 11:56:08;;;;;;;16.13;3.10;;;6.70;1.00;;;;;;5052425;28;20235;-63
2022/02/07 11:58:49;;;;;;;14.30;2.93;;;6.70;1.00;;;;;;5051915;28;20304;-63
2022/02/07 12:01:25;;;;;;;18.40;2.93;;;6.80;1.00;;;;;;5052671;28;20577;-64
2022/02/07 12:03:53;;;;;;;9.90;2.60;;;6.80;1.00;;;;;;5052496;28;20225;-64
2022/02/07 12:06:24;;;;;;;12.00;2.63;;;6.90;99.90;;;;;;5052217;28;20209;-64
2022/02/07 12:08:53;;;;;;;13.83;2.73;;;7.10;1.00;;;;;;5052491;28;20232;-63
2022/02/07 12:11:20;;;;;;;11.57;2.37;;;7.30;99.90;;;;;;5052079;28;20205;-64
2022/02/07 12:13:46;;;;;;;12.60;2.83;;;7.30;99.90;;;;;;5052041;28;20860;-63
2022/02/07 12:16:20;;;;;;;19.97;3.17;;;7.20;99.90;;;;;;5051222;28;20209;-63
2022/02/07 12:18:48;;;;;;;17.53;2.87;;;7.20;99.90;;;;;;5051939;28;20202;-63
2022/02/07 12:21:23;;;;;;;16.33;2.93;;;7.20;99.90;;;;;;5052190;28;20596;-61
2022/02/07 12:23:53;;;;;;;8.60;2.17;;;7.10;99.90;;;;;;5052290;28;20628;-66
2022/02/07 12:26:19;;;;;;;10.07;2.57;;;7.10;99.90;;;;;;5050695;28;20205;-66
2022/02/07 12:28:49;;;;;;;13.53;2.53;;;7.10;99.90;;;;;;5051929;28;20271;-65
2022/02/07 12:31:19;;;;;;;9.03;2.00;;;7.00;93.60;;;;;;5053011;28;20239;-64
2022/02/07 12:33:52;;;;;;;7.73;2.30;;;7.00;99.90;;;;;;5052300;28;20232;-66
2022/02/07 12:36:20;;;;;;;16.90;2.30;;;7.20;99.90;;;;;;5051744;28;20238;-65
2022/02/07 12:38:47;;;;;;;9.80;2.30;;;7.40;47.40;;;;;;5051893;28;20214;-64
2022/02/07 12:41:16;;;;;;;10.60;2.20;;;7.60;99.90;;;;;;5052727;28;20217;-63
2022/02/07 12:43:48;;;;;;;10.33;2.23;;;7.70;1.00;;;;;;5052562;28;20226;-64
2022/02/07 12:46:19;;;;;;;9.07;2.20;;;7.70;99.90;;;;;;5051788;28;20194;-63
2022/02/07 12:48:51;;;;;;;17.27;2.40;;;7.80;99.90;;;;;;5051666;28;20221;-63
2022/02/07 12:51:21;;;;;;;6.20;1.93;;;7.90;99.90;;;;;;5051587;28;20206;-62
2022/02/07 12:53:48;;;;;;;16.23;2.63;;;7.80;99.90;;;;;;5051238;28;20242;-65
2022/02/07 12:56:16;;;;;;;10.80;2.63;;;7.60;1.00;;;;;;5051113;28;20210;-66
2022/02/07 12:58:43;;;;;;;9.17;2.70;;;7.60;1.00;;;;;;5051192;28;20228;-63
2022/02/07 13:01:26;;;;;;;15.77;2.50;;;7.60;1.00;;;;;;5051286;28;20203;-65
2022/02/07 13:03:57;;;;;;;11.90;2.27;;;7.50;99.90;;;;;;5049717;28;20222;-63
2022/02/07 13:06:26;;;;;;;12.97;2.40;;;7.60;99.90;;;;;;5050670;28;20194;-61
2022/02/07 13:08:53;;;;;;;10.17;2.57;;;7.60;99.90;;;;;;5050966;28;20209;-64
2022/02/07 13:11:26;;;;;;;11.50;2.70;;;7.60;95.80;;;;;;5051372;28;20229;-63
2022/02/07 13:13:54;;;;;;;17.83;2.83;;;7.70;1.00;;;;;;5050749;28;20324;-64
2022/02/07 13:16:21;;;;;;;11.67;2.47;;;7.70;1.00;;;;;;5050948;28;20249;-63
2022/02/07 13:18:50;;;;;;;12.90;2.83;;;7.70;1.00;;;;;;5051275;28;20221;-64
2022/02/07 13:21:18;;;;;;;9.70;2.93;;;7.50;1.00;;;;;;5051487;28;20211;-62
2022/02/07 13:23:47;;;;;;;12.03;3.17;;;7.50;1.00;;;;;;5050906;28;20670;-62
2022/02/07 13:26:14;;;;;;;8.00;2.70;;;7.40;1.00;;;;;;5052286;28;20667;-61
2022/02/07 13:28:43;;;;;;;9.90;2.80;;;7.10;99.90;;;;;;5052152;28;20217;-61
2022/02/07 13:31:11;;;;;;;8.03;2.80;;;6.70;1.00;;;;;;5053421;28;20216;-61
2022/02/07 13:33:52;;;;;;;9.73;3.07;;;6.30;1.00;;;;;;5051328;28;20226;-62
2022/02/07 13:36:37;;;;;;;11.83;4.17;;;6.20;3.80;;;;;;5050539;28;20205;-59
2022/02/07 13:39:06;;;;;;;10.80;3.57;;;6.30;44.50;;;;;;5050853;28;20216;-62
2022/02/07 13:41:33;;;;;;;12.00;3.83;;;6.20;74.30;;;;;;5050768;28;20241;-61
2022/02/07 13:44:01;;;;;;;14.47;3.73;;;6.20;81.90;;;;;;5052809;28;20786;-62
2022/02/07 13:46:30;;;;;;;13.30;3.83;;;6.30;82.10;;;;;;5048342;28;20280;-62
2022/02/07 13:48:59;;;;;;;13.07;3.60;;;6.20;92.70;;;;;;5033788;28;20190;-62
2022/02/07 13:51:27;;;;;;;11.77;3.57;;;6.30;99.90;;;;;;5031997;28;20214;-62
2022/02/07 13:53:55;;;;;;;10.87;4.03;;;6.30;99.90;;;;;;5030918;28;20225;-62
2022/02/07 13:56:29;;;;;;;14.20;3.90;;;6.30;99.90;;;;;;5030681;28;20213;-63
2022/02/07 13:58:56;;;;;;;9.67;3.23;;;6.30;74.60;;;;;;5030654;28;20297;-60
2022/02/07 14:01:33;;;;;;;13.37;3.10;;;6.40;99.90;;;;;;5031194;28;20206;-59
2022/02/07 14:04:01;;;;;;;10.77;3.43;;;6.50;86.00;;;;;;5030412;28;20229;-59
2022/02/07 14:06:30;;;;;;;11.83;3.20;;;6.50;69.80;;;;;;5030378;28;20217;-60
2022/02/07 14:08:58;;;;;;;13.67;3.90;;;6.50;1.00;;;;;;5030331;28;20664;-60
2022/02/07 14:11:27;;;;;;;8.93;3.17;;;6.60;1.00;;;;;;5030941;28;20305;-60
2022/02/07 14:13:55;;;;;;;9.77;3.27;;;6.60;1.00;;;;;;5030591;28;20226;-59
2022/02/07 14:16:25;;;;;;;12.67;3.20;;;6.70;1.00;;;;;;5030142;28;20652;-61
2022/02/07 14:18:53;;;;;;;12.97;3.07;;;6.80;1.00;;;;;;5030294;28;20305;-59
2022/02/07 14:21:24;;;;;;;12.43;3.17;;;6.80;1.00;;;;;;5030425;28;20207;-57
2022/02/07 14:23:53;;;;;;;7.80;2.87;;;6.80;1.00;;;;;;5030715;28;20333;-60
2022/02/07 14:26:23;;;;;;;9.60;2.60;;;6.70;1.00;;;;;;5030061;28;20300;-61